sensor_id;sensor_type;location;lat;lon;timestamp;pressure;altitude;pressure_sealevel;temperature
77385;BMP280;66444;49.680;18.538;2024-03-08T00:01:02;97738.27529912662;;;4.143716398905963
77385;BMP280;66444;49.680;18.538;2024-03-08T00:06:08;97734.15677244627;;;4.082582507841289
77385;BMP280;66444;49.680;18.538;2024-03-08T00:11:12;97726.75695678788;;;4.102960564661771
77385;BMP280;66444;49.680;18.538;2024-03-08T00:16:16;97734.72883000177;;;4.052015247987583
77385;BMP280;66444;49.680;18.538;2024-03-08T00:21:20;97731.60125979634;;;4.031636958336458
77385;BMP280;66444;49.680;18.538;2024-03-08T00:26:24;97726.90997144717;;;4.001069349236786
77385;BMP280;66444;49.680;18.538;2024-03-08T00:31:28;97716.38447248198;;;4.001069349236786
77385;BMP280;66444;49.680;18.538;2024-03-08T00:36:32;97712.76146169499;;;3.96031221114099
77385;BMP280;66444;49.680;18.538;2024-03-08T00:41:36;97707.57465082218;;;3.9093652646522967
77385;BMP280;66444;49.680;18.538;2024-03-08T00:46:40;97712.98349811783;;;3.8074696254450826
77385;BMP280;66444;49.680;18.538;2024-03-08T00:51:44;97706.3018283829;;;3.695381733123213
77385;BMP280;66444;49.680;18.538;2024-03-08T00:56:48;97702.31465186132;;;3.5323397696949543
77385;BMP280;66444;49.680;18.538;2024-03-08T01:01:52;97697.75395423819;;;3.3998637855518608
77385;BMP280;66444;49.680;18.538;2024-03-08T01:06:57;97699.66446797618;;;3.343815069273114
77385;BMP280;66444;49.680;18.538;2024-03-08T01:12:01;97687.93142785486;;;3.26738386657089
77385;BMP280;66444;49.680;18.538;2024-03-08T01:17:12;97686.99135217317;;;3.175664694560692
77385;BMP280;66444;49.680;18.538;2024-03-08T01:22:16;97687.27230680475;;;3.1603779825381935
77385;BMP280;66444;49.680;18.538;2024-03-08T01:27:21;97686.71028434297;;;3.190951354196295
77385;BMP280;66444;49.680;18.538;2024-03-08T01:32:25;97680.8918481165;;;3.2215245163068174
77385;BMP280;66444;49.680;18.538;2024-03-08T01:37:29;97675.97926183116;;;3.1552824002224953
77385;BMP280;66444;49.680;18.538;2024-03-08T01:42:36;97672.40950781104;;;3.0635609231889247
77385;BMP280;66444;49.680;18.538;2024-03-08T01:47:41;97672.97047508333;;;3.0329866784159094
77385;BMP280;66444;49.680;18.538;2024-03-08T01:52:47;97664.52764901954;;;3.0635609231889247
77385;BMP280;66444;49.680;18.538;2024-03-08T01:57:51;97668.15756312163;;;3.1043262569233776
77385;BMP280;66444;49.680;18.538;2024-03-08T02:02:55;97663.90435137073;;;3.1450912181288
77385;BMP280;66444;49.680;18.538;2024-03-08T02:08:02;97663.34137437145;;;3.175664694560692
77385;BMP280;66444;49.680;18.538;2024-03-08T02:13:09;97653.83024873782;;;3.2164290038403123
77385;BMP280;66444;49.680;18.538;2024-03-08T02:18:14;97662.21406189885;;;3.2368110187817365
77385;BMP280;66444;49.680;18.538;2024-03-08T02:23:18;97659.58603606495;;;3.2368110187817365
77385;BMP280;66444;49.680;18.538;2024-03-08T02:28:23;97650.48445429819;;;3.1603779825381935
77385;BMP280;66444;49.680;18.538;2024-03-08T02:33:28;97655.08162610105;;;3.053369531547651
77385;BMP280;66444;49.680;18.538;2024-03-08T02:38:32;97635.02853138147;;;2.9055917363148183
77385;BMP280;66444;49.680;18.538;2024-03-08T02:43:37;97643.80544591477;;;2.8087691472377627
77385;BMP280;66444;49.680;18.538;2024-03-08T02:48:41;97639.22231910181;;;2.6762716728262603
77385;BMP280;66444;49.680;18.538;2024-03-08T02:53:45;97639.88379247746;;;2.54377026357688
77385;BMP280;66444;49.680;18.538;2024-03-08T02:58:49;97647.35160073626;;;2.4214577779639512
77385;BMP280;66444;49.680;18.538;2024-03-08T03:03:53;97647.90491196698;;;2.390879132691771
77385;BMP280;66444;49.680;18.538;2024-03-08T03:08:58;97646.33969818197;;;2.3806862043682484
77385;BMP280;66444;49.680;18.538;2024-03-08T03:14:02;97651.67911781515;;;2.278755640564486
77385;BMP280;66444;49.680;18.538;2024-03-08T03:19:09;97647.8513334123;;;2.151339161628857
77385;BMP280;66444;49.680;18.538;2024-03-08T03:24:13;97653.96155076266;;;2.054500204557553
77385;BMP280;66444;49.680;18.538;2024-03-08T03:29:17;97644.01828163439;;;2.023919044714421
77385;BMP280;66444;49.680;18.538;2024-03-08T03:34:21;97633.01863726352;;;2.003531488403678
77385;BMP280;66444;49.680;18.538;2024-03-08T03:39:25;97633.67940895684;;;1.8200392906554044
77385;BMP280;66444;49.680;18.538;2024-03-08T03:44:29;97644.71216901531;;;1.7894565242808311
77385;BMP280;66444;49.680;18.538;2024-03-08T03:49:34;97650.77220470723;;;1.7435819818172604
77385;BMP280;66444;49.680;18.538;2024-03-08T03:54:38;97648.38943088733;;;1.7792622222565115
77385;BMP280;66444;49.680;18.538;2024-03-08T03:59:42;97646.82314093532;;;1.7690678969491274
77385;BMP280;66444;49.680;18.538;2024-03-08T04:04:46;97640.01357093104;;;1.7588735483586788
77385;BMP280;66444;49.680;18.538;2024-03-08T04:09:51;97639.2304793846;;;1.7537763653323055
77385;BMP280;66444;49.680;18.538;2024-03-08T04:14:55;97629.52702067926;;;1.7588735483586788
77385;BMP280;66444;49.680;18.538;2024-03-08T04:19:59;97632.35034003442;;;1.8455247692298145
77385;BMP280;66444;49.680;18.538;2024-03-08T04:25:06;97632.039707036;;;1.911786332493648
77385;BMP280;66444;49.680;18.538;2024-03-08T04:30:11;97632.50997946184;;;1.9831438389606775
77385;BMP280;66444;49.680;18.538;2024-03-08T04:35:16;97639.78967215412;;;2.064693877939135
77385;BMP280;66444;49.680;18.538;2024-03-08T04:40:21;97637.90806532194;;;2.1207586653530597
77385;BMP280;66444;49.680;18.538;2024-03-08T04:45:26;97639.15557585841;;;2.1972095131408422
77385;BMP280;66444;49.680;18.538;2024-03-08T04:50:31;97634.69118239252;;;2.2023061897605656
77385;BMP280;66444;49.680;18.538;2024-03-08T04:55:37;97635.47384347867;;;2.2074028605595233
77385;BMP280;66444;49.680;18.538;2024-03-08T05:00:40;97635.79254658314;;;2.1411456861533225
77385;BMP280;66444;49.680;18.538;2024-03-08T05:05:44;97630.31354316672;;;2.105468338634819
77385;BMP280;66444;49.680;18.538;2024-03-08T05:10:47;97638.22402855761;;;2.054500204557553
77385;BMP280;66444;49.680;18.538;2024-03-08T05:15:50;97642.41263189074;;;2.064693877939135
77385;BMP280;66444;49.680;18.538;2024-03-08T05:20:54;97642.92098708573;;;2.0850811548531056
77385;BMP280;66444;49.680;18.538;2024-03-08T05:25:58;97636.10932204023;;;2.074887528037652
77385;BMP280;66444;49.680;18.538;2024-03-08T05:31:02;97641.35532499735;;;2.074887528037652
77385;BMP280;66444;49.680;18.538;2024-03-08T05:36:06;97640.76407875125;;;2.1564358906354757
77385;BMP280;66444;49.680;18.538;2024-03-08T05:41:09;97646.75089268404;;;2.2124995255377145
77385;BMP280;66444;49.680;18.538;2024-03-08T05:46:15;97649.0991685191;;;2.2277894855476914
77385;BMP280;66444;49.680;18.538;2024-03-08T05:51:18;97656.4624718721;;;2.2074028605595233
77385;BMP280;66444;49.680;18.538;2024-03-08T05:56:21;97660.14387979973;;;2.1972095131408422
77385;BMP280;66444;49.680;18.538;2024-03-08T06:01:25;97650.6646972684;;;2.2379827631171794
77385;BMP280;66444;49.680;18.538;2024-03-08T06:06:28;97656.60656370298;;;2.345010771881789
77385;BMP280;66444;49.680;18.538;2024-03-08T06:11:31;97658.861665786;;;2.462228979030624
77385;BMP280;66444;49.680;18.538;2024-03-08T06:16:36;97658.20897993192;;;2.5947328097186984
77385;BMP280;66444;49.680;18.538;2024-03-08T06:21:40;97655.42634744692;;;2.747616955684498
77385;BMP280;66444;49.680;18.538;2024-03-08T06:26:43;97662.6360408914;;;2.880112311337143
77385;BMP280;66444;49.680;18.538;2024-03-08T06:31:46;97665.64991825381;;;3.002412224095315
77385;BMP280;66444;49.680;18.538;2024-03-08T06:36:49;97667.37540572729;;;3.0992306105792524
77385;BMP280;66444;49.680;18.538;2024-03-08T06:41:54;97672.7261890546;;;3.2368110187817365
77385;BMP280;66444;49.680;18.538;2024-03-08T06:46:58;97676.7239359274;;;3.3998637855518608
77385;BMP280;66444;49.680;18.538;2024-03-08T06:52:01;97677.72194465666;;;3.4406260459218174
77385;BMP280;66444;49.680;18.538;2024-03-08T06:57:06;97666.77493285696;;;3.3692918458022176
77385;BMP280;66444;49.680;18.538;2024-03-08T07:02:09;97668.33876460239;;;3.3794825156684967
77385;BMP280;66444;49.680;18.538;2024-03-08T07:07:17;97660.38485776343;;;3.430435515753925
77385;BMP280;66444;49.680;18.538;2024-03-08T07:12:23;97664.07888633554;;;3.420244962302968
77385;BMP280;66444;49.680;18.538;2024-03-08T07:17:26;97665.00636526805;;;3.5119591051712633
77385;BMP280;66444;49.680;18.538;2024-03-08T07:22:30;97662.80377175711;;;3.5832910235505553
77385;BMP280;66444;49.680;18.538;2024-03-08T07:27:33;97676.72740022051;;;3.7769004796631633
77385;BMP280;66444;49.680;18.538;2024-03-08T07:32:37;97666.88289089066;;;4.021447778586298
77385;BMP280;66444;49.680;18.538;2024-03-08T07:37:41;97665.23890612948;;;4.062204357888549
77385;BMP280;66444;49.680;18.538;2024-03-08T07:42:45;97669.47157889827;;;4.209943835018203
77385;BMP280;66444;49.680;18.538;2024-03-08T07:47:49;97663.07654172697;;;4.408620241098106
77385;BMP280;66444;49.680;18.538;2024-03-08T07:52:52;97658.02457952354;;;4.581818089494481
77385;BMP280;66444;49.680;18.538;2024-03-08T07:57:56;97653.93215427933;;;4.79575908286497
77385;BMP280;66444;49.680;18.538;2024-03-08T08:02:59;97650.89238982144;;;4.999502863828093
77385;BMP280;66444;49.680;18.538;2024-03-08T08:08:02;97644.73642375803;;;5.045343931065872
77385;BMP280;66444;49.680;18.538;2024-03-08T08:13:07;97646.48666545178;;;5.091184526821598
77385;BMP280;66444;49.680;18.538;2024-03-08T08:18:10;97642.2902772215;;;5.080997768510133
77385;BMP280;66444;49.680;18.538;2024-03-08T08:23:18;97641.42502237516;;;4.989315895969048
77385;BMP280;66444;49.680;18.538;2024-03-08T08:28:24;97649.83474575645;;;4.734634132497012
77385;BMP280;66444;49.680;18.538;2024-03-08T08:33:33;97643.49232935702;;;4.744821682432667
77385;BMP280;66444;49.680;18.538;2024-03-08T08:38:42;97647.07715798648;;;5.060624182038009
77385;BMP280;66444;49.680;18.538;2024-03-08T08:43:45;97644.52574325912;;;5.508821570873261
77385;BMP280;66444;49.680;18.538;2024-03-08T08:48:50;97646.4355071272;;;6.038451279513538
77385;BMP280;66444;49.680;18.538;2024-03-08T08:53:53;97653.37565759613;;;6.618934592837467
77385;BMP280;66444;49.680;18.538;2024-03-08T08:58:56;97641.82133761563;;;7.148432333068922
77385;BMP280;66444;49.680;18.538;2024-03-08T09:04:00;97656.92027992736;;;7.57605762402527
77385;BMP280;66444;49.680;18.538;2024-03-08T09:09:04;97643.62798631737;;;7.922200396889821
77385;BMP280;66444;49.680;18.538;2024-03-08T09:14:08;97644.3829076826;;;8.01382191972807
77385;BMP280;66444;49.680;18.538;2024-03-08T09:19:12;97648.49464762669;;;7.72877098871395
77385;BMP280;66444;49.680;18.538;2024-03-08T09:24:16;97649.12199784999;;;7.698228734871373
77385;BMP280;66444;49.680;18.538;2024-03-08T09:29:23;97650.97819843881;;;7.779674279456958
77385;BMP280;66444;49.680;18.538;2024-03-08T09:34:27;97639.78732061654;;;7.63714359854348
77385;BMP280;66444;49.680;18.538;2024-03-08T09:39:32;97648.3654526417;;;7.4335204238537695
77385;BMP280;66444;49.680;18.538;2024-03-08T09:44:36;97639.80596400895;;;7.290978660201654
77385;BMP280;66444;49.680;18.538;2024-03-08T09:49:40;97639.803036347;;;7.464064493775368
77385;BMP280;66444;49.680;18.538;2024-03-08T09:54:43;97636.69091860142;;;7.443701803777367
77385;BMP280;66444;49.680;18.538;2024-03-08T09:59:47;97644.47127551236;;;7.494608354149387
77385;BMP280;66444;49.680;18.538;2024-03-08T10:04:51;97637.3021904239;;;7.586238677985966
77385;BMP280;66444;49.680;18.538;2024-03-08T10:09:55;97646.02737190701;;;7.504789594374597
77385;BMP280;66444;49.680;18.538;2024-03-08T10:14:59;97640.41381479912;;;7.606600716058165
77385;BMP280;66444;49.680;18.538;2024-03-08T10:20:02;97638.8709683224;;;7.423339020647108
77385;BMP280;66444;49.680;18.538;2024-03-08T10:25:10;97641.96963946153;;;7.616781700169668
77385;BMP280;66444;49.680;18.538;2024-03-08T10:30:14;97633.37845761431;;;8.288675172673539
77385;BMP280;66444;49.680;18.538;2024-03-08T10:35:26;97633.20854031757;;;8.634762531844899
77385;BMP280;66444;49.680;18.538;2024-03-08T10:40:34;97627.80021571384;;;8.807796118222177
77385;BMP280;66444;49.680;18.538;2024-03-08T10:45:48;97625.28823232875;;;8.25304700480774
77385;BMP280;66444;49.680;18.538;2024-03-08T10:50:53;97624.74876835529;;;8.024001972516999
77385;BMP280;66444;49.680;18.538;2024-03-08T10:55:59;97612.25178876224;;;8.115621399879455
77385;BMP280;66444;49.680;18.538;2024-03-08T11:01:03;97613.31265904006;;;8.191969482041895
77385;BMP280;66444;49.680;18.538;2024-03-08T11:06:14;97612.64012964204;;;8.604226494580507
77385;BMP280;66444;49.680;18.538;2024-03-08T11:11:24;97605.03088254195;;;8.797617858229206
77385;BMP280;66444;49.680;18.538;2024-03-08T11:16:37;97602.70648847302;;;8.991000816691667
77385;BMP280;66444;49.680;18.538;2024-03-08T11:21:43;97598.69814628629;;;9.469333075592294
77385;BMP280;66444;49.680;18.538;2024-03-08T11:26:47;97600.28302084791;;;9.601628662552685
77385;BMP280;66444;49.680;18.538;2024-03-08T11:31:50;97589.42264149114;;;9.530393066210673
77385;BMP280;66444;49.680;18.538;2024-03-08T11:36:55;97592.763904711;;;9.621981480531394
77385;BMP280;66444;49.680;18.538;2024-03-08T11:41:59;97582.44117561233;;;9.484598151827232
77385;BMP280;66444;49.680;18.538;2024-03-08T11:47:04;97570.72466645739;;;9.164020549645647
77385;BMP280;66444;49.680;18.538;2024-03-08T11:52:12;97568.35623801785;;;8.817974354932085
77385;BMP280;66444;49.680;18.538;2024-03-08T11:57:26;97560.01125623552;;;8.71110170823522
77385;BMP280;66444;49.680;18.538;2024-03-08T12:02:29;97554.83005527419;;;8.955378271685912
77385;BMP280;66444;49.680;18.538;2024-03-08T12:07:38;97558.39514387395;;;9.326856504520402
77385;BMP280;66444;49.680;18.538;2024-03-08T12:12:42;97554.22214813206;;;9.438802765961736
77385;BMP280;66444;49.680;18.538;2024-03-08T12:17:47;97551.5354982972;;;9.316679431963712
77385;BMP280;66444;49.680;18.538;2024-03-08T12:22:59;97549.08751929122;;;9.2657937199343
77385;BMP280;66444;49.680;18.538;2024-03-08T12:28:25;97545.33077878196;;;9.275970908906311
77385;BMP280;66444;49.680;18.538;2024-03-08T12:33:29;97556.42935994359;;;9.418449109792709
77385;BMP280;66444;49.680;18.538;2024-03-08T12:38:33;97537.4000585209;;;9.398095360491425
77385;BMP280;66444;49.680;18.538;2024-03-08T12:43:36;97531.22267412077;;;9.479509798903019
77385;BMP280;66444;49.680;18.538;2024-03-08T12:48:40;97528.26832393005;;;9.739008376561106
77385;BMP280;66444;49.680;18.538;2024-03-08T12:53:43;97534.13736498581;;;9.794976673135533
77385;BMP280;66444;49.680;18.538;2024-03-08T12:58:48;97533.24942406344;;;9.754272527294233
77385;BMP280;66444;49.680;18.538;2024-03-08T13:03:54;97527.49869884872;;;9.856032193405554
77385;BMP280;66444;49.680;18.538;2024-03-08T13:08:58;97524.16541217775;;;10.130771662015468
77385;BMP280;66444;49.680;18.538;2024-03-08T13:14:03;97517.23124550829;;;10.486890155496075
77385;BMP280;66444;49.680;18.538;2024-03-08T20:35:14;97375.54974563836;;;2.3603002778720112
77385;BMP280;66444;49.680;18.538;2024-03-08T20:40:17;97370.4386817312;;;2.2583692484069617
77385;BMP280;66444;49.680;18.538;2024-03-08T20:45:20;97366.88570381007;;;2.1666293311864138
77385;BMP280;66444;49.680;18.538;2024-03-08T20:50:25;97368.01285731753;;;2.105468338634819
77385;BMP280;66444;49.680;18.538;2024-03-08T20:55:27;97365.7351006502;;;2.0392096508294344
77385;BMP280;66444;49.680;18.538;2024-03-08T21:00:30;97369.70020428536;;;2.0137252782005817
77385;BMP280;66444;49.680;18.538;2024-03-08T21:05:34;97361.83273056117;;;2.0137252782005817
77385;BMP280;66444;49.680;18.538;2024-03-08T21:10:37;97363.33024797637;;;2.074887528037652
77385;BMP280;66444;49.680;18.538;2024-03-08T21:15:40;97362.76708566587;;;2.105468338634819
77385;BMP280;66444;49.680;18.538;2024-03-08T21:20:52;97367.88214950981;;;2.2074028605595233
77385;BMP280;66444;49.680;18.538;2024-03-08T21:26:01;97360.23098550798;;;2.431650613155216
77385;BMP280;66444;49.680;18.538;2024-03-08T21:31:04;97355.67230274965;;;2.6762716728262603
77385;BMP280;66444;49.680;18.538;2024-03-08T21:36:09;97351.08468478928;;;2.9208793214522304
77385;BMP280;66444;49.680;18.538;2024-03-08T21:41:13;97347.62496629258;;;3.1043262569233776
77385;BMP280;66444;49.680;18.538;2024-03-08T21:46:16;97344.92814960392;;;3.2928610796574502
77385;BMP280;66444;49.680;18.538;2024-03-08T21:51:24;97343.96303781234;;;3.389673162251711
77385;BMP280;66444;49.680;18.538;2024-03-08T21:56:26;97340.26438709283;;;3.3998637855518608
77385;BMP280;66444;49.680;18.538;2024-03-08T22:01:28;97330.52963750955;;;3.404959088470787
77385;BMP280;66444;49.680;18.538;2024-03-08T22:06:31;97338.70624829714;;;3.389673162251711
77385;BMP280;66444;49.680;18.538;2024-03-08T22:11:33;97335.97447959849;;;3.303051924146712
77385;BMP280;66444;49.680;18.538;2024-03-08T22:16:36;97334.21812540297;;;3.2571929405909033
77385;BMP280;66444;49.680;18.538;2024-03-08T22:21:38;97330.13664576162;;;3.3336243179161102
77385;BMP280;66444;49.680;18.538;2024-03-08T22:26:39;97340.84660592926;;;3.3692918458022176
77385;BMP280;66444;49.680;18.538;2024-03-08T22:31:41;97337.54057781925;;;3.4508165528066455
77385;BMP280;66444;49.680;18.538;2024-03-08T22:36:43;97319.04203032596;;;3.501768737984821
77385;BMP280;66444;49.680;18.538;2024-03-08T22:41:52;97320.5996334546;;;3.5119591051712633
77385;BMP280;66444;49.680;18.538;2024-03-08T22:46:54;97310.18303251993;;;3.4610070364084096
77385;BMP280;66444;49.680;18.538;2024-03-08T22:51:57;97299.96128283544;;;3.3081473376601935
77385;BMP280;66444;49.680;18.538;2024-03-08T22:56:58;97296.54729799725;;;3.1654735590331256
77385;BMP280;66444;49.680;18.538;2024-03-08T23:02:01;97297.80033072256;;;3.053369531547651
77385;BMP280;66444;49.680;18.538;2024-03-08T23:07:09;97292.7264373921;;;2.9514543345663697
77385;BMP280;66444;49.680;18.538;2024-03-08T23:12:12;97289.20806735576;;;2.8597286665812134
77385;BMP280;66444;49.680;18.538;2024-03-08T23:17:14;97296.39299546886;;;2.8036731632892042
77385;BMP280;66444;49.680;18.538;2024-03-08T23:22:16;97291.31067579177;;;2.7017522619571537
77385;BMP280;66444;49.680;18.538;2024-03-08T23:27:18;97306.44581232498;;;2.5947328097186984
77385;BMP280;66444;49.680;18.538;2024-03-08T23:32:20;97302.41994787501;;;2.482614439865574
77385;BMP280;66444;49.680;18.538;2024-03-08T23:37:24;97307.32675315962;;;2.3603002778720112
77385;BMP280;66444;49.680;18.538;2024-03-08T23:42:26;97299.10827488838;;;2.2379827631171794
77385;BMP280;66444;49.680;18.538;2024-03-08T23:47:28;97302.79552310816;;;2.2277894855476914
77385;BMP280;66444;49.680;18.538;2024-03-08T23:52:30;97298.68459383085;;;2.1666293311864138
77385;BMP280;66444;49.680;18.538;2024-03-08T23:57:31;97293.22612009461;;;2.1309521873947235
